Terminal Aerodrome Forecast
Issued by NWS

Home | Current Version | Previous Version | Text Only | Print | Product List | Glossary On
Versions: 1 2 3 4 5 6 7 8 9 10 11 12 13 14 15
000
FTUS45 KGGW 311432 AAC
TAFOLF
TAF AMD
KOLF 311432Z 3115/0112 34017G25KT 6SM -SHRA SCT025 BKN060
     FM311800 34021G29KT 4SM -SHRA OVC025
     FM312100 33023G32KT P6SM -SHRA BKN040
     FM010000 33017G25KT P6SM BKN040
     FM010300 33006KT P6SM SCT040=

USA.gov is the U.S. government's official web portal to all federal, state and local government web resources and services.